Estación de Illapel

Ultimos registro cada 15 minutos 47
Estación Fecha / Hora Temperatura Humedad Lluvia Velocidad Dirección Radiación Presion
47 Illapel 01-09-2026 11:30 21,6 41 0 0,4 41 33 998,1
46 Illapel 01-09-2026 11:15 21,2 43 0 0,4 133 49 998,4
45 Illapel 01-09-2026 11:00 20,5 42 0 1,8 118 218 998,3
44 Illapel 01-09-2026 10:45 19,3 46 0 0 86 49 999,2
43 Illapel 01-09-2026 10:30 18,2 49 0 1,3 50 58 999,4
42 Illapel 01-09-2026 10:15 17,3 51 0 0,9 71 190 999,7
41 Illapel 01-09-2026 10:00 16,7 52 0 0,9 42 272 999,9
40 Illapel 01-09-2026 09:45 16,1 53 0 0 42 345 1000,1
39 Illapel 01-09-2026 09:30 15,6 52 0 0,4 100 406 1000,3
38 Illapel 01-09-2026 09:15 14,2 51 0 0,4 129 432 999,9
37 Illapel 01-09-2026 09:00 13 46 0 0 69 218 999,6
36 Illapel 01-09-2026 08:45 11,7 44 0 0 69 178 999,8
35 Illapel 01-09-2026 08:30 11,2 44 0 0 59 105 999,8
34 Illapel 01-09-2026 08:15 11,1 43 0 0 298 90 999,4
33 Illapel 01-09-2026 08:00 11,2 42 0 0 153 88 999,1
32 Illapel 01-09-2026 07:45 10,7 43 0 0 154 44 998,9
31 Illapel 01-09-2026 07:30 10,3 43 0 0,4 154 28 998,8
30 Illapel 01-09-2026 07:15 9,8 44 0 0,4 178 9 998,7
29 Illapel 01-09-2026 07:00 9,2 46 0 0,9 154 0 998,7
28 Illapel 01-09-2026 06:45 9,5 46 0 0,4 104 0 998,4
27 Illapel 01-09-2026 06:30 9,4 46 0 0 204 0 998,3
26 Illapel 01-09-2026 06:15 9,4 46 0 0,9 204 0 998,3
25 Illapel 01-09-2026 06:00 9,4 46 0 0,4 198 0 998,7
24 Illapel 01-09-2026 05:45 9,3 45 0 0,9 133 0 998,8
23 Illapel 01-09-2026 05:30 10 45 0 0,4 149 0 999,2
22 Illapel 01-09-2026 05:15 9,9 46 0 0 152 0 999,1
21 Illapel 01-09-2026 05:00 9,6 46 0 0,4 153 0 999
20 Illapel 01-09-2026 04:45 9,6 46 0 0 158 0 999,3
19 Illapel 01-09-2026 04:30 9,8 46 0 0 156 0 999,2
18 Illapel 01-09-2026 04:15 10 46 0 0 163 0 999,3
17 Illapel 01-09-2026 04:00 9,8 46 0 0 173 0 999,3
16 Illapel 01-09-2026 03:45 9,8 46 0 0 163 0 999,4
15 Illapel 01-09-2026 03:30 9,8 46 0 0,4 163 0 999,6
14 Illapel 01-09-2026 03:15 10 46 0 0 152 0 999,8
13 Illapel 01-09-2026 03:00 10 46 0 0,9 168 0 1000
12 Illapel 01-09-2026 02:45 10 46 0 0,4 125 0 1000,3
11 Illapel 01-09-2026 02:30 10,1 46 0 0 131 0 1000,5
10 Illapel 01-09-2026 02:15 9,8 50 0 0,9 119 0 1000,6
9 Illapel 01-09-2026 02:00 9,9 50 0 0 234 0 1000,8
8 Illapel 01-09-2026 01:45 10,2 50 0 0 235 0 1001,1
7 Illapel 01-09-2026 01:30 10,2 51 0 0 235 0 1001,3
6 Illapel 01-09-2026 01:15 10,1 52 0 0 237 0 1001,4
5 Illapel 01-09-2026 01:00 10,1 55 0 0 239 0 1001,5
4 Illapel 01-09-2026 00:45 10,4 56 0 0 239 0 1001,7
3 Illapel 01-09-2026 00:30 10,7 56 0 0 239 0 1001,7
2 Illapel 01-09-2026 00:15 10,9 56 0 0 239 0 1001,5
1 Illapel 01-09-2026 00:00 10,9 57 0 0 239 0 1001,6